sensor_id;sensor_type;location;lat;lon;timestamp;P1;durP1;ratioP1;P2;durP2;ratioP2
8735;SDS011;4404;49.308;12.178;2023-07-13T06:09:21;0.60;;;0.60;;
8735;SDS011;4404;49.308;12.178;2023-07-13T06:11:34;0.52;;;0.52;;
8735;SDS011;4404;49.308;12.178;2023-07-13T06:13:39;0.50;;;0.50;;
8735;SDS011;4404;49.308;12.178;2023-07-13T06:15:47;0.50;;;0.50;;
8735;SDS011;4404;49.308;12.178;2023-07-13T06:17:50;0.60;;;0.60;;
8735;SDS011;4404;49.308;12.178;2023-07-13T06:19:52;0.60;;;0.60;;
8735;SDS011;4404;49.308;12.178;2023-07-13T06:21:54;0.50;;;0.50;;
8735;SDS011;4404;49.308;12.178;2023-07-13T06:23:56;0.60;;;0.60;;
8735;SDS011;4404;49.308;12.178;2023-07-13T06:26:00;0.60;;;0.60;;
8735;SDS011;4404;49.308;12.178;2023-07-13T06:28:06;0.70;;;0.70;;
8735;SDS011;4404;49.308;12.178;2023-07-13T06:30:21;0.60;;;0.60;;
8735;SDS011;4404;49.308;12.178;2023-07-13T06:32:31;0.60;;;0.60;;
8735;SDS011;4404;49.308;12.178;2023-07-13T06:34:44;0.60;;;0.60;;
8735;SDS011;4404;49.308;12.178;2023-07-13T06:37:09;0.70;;;0.70;;
8735;SDS011;4404;49.308;12.178;2023-07-13T06:39:29;0.60;;;0.60;;
8735;SDS011;4404;49.308;12.178;2023-07-13T06:44:11;0.70;;;0.70;;
8735;SDS011;4404;49.308;12.178;2023-07-13T06:46:13;0.77;;;0.77;;
8735;SDS011;4404;49.308;12.178;2023-07-13T06:48:16;0.80;;;0.80;;
8735;SDS011;4404;49.308;12.178;2023-07-13T06:50:20;0.80;;;0.80;;
8735;SDS011;4404;49.308;12.178;2023-07-13T06:52:22;0.83;;;0.83;;
8735;SDS011;4404;49.308;12.178;2023-07-13T06:54:25;0.80;;;0.80;;
8735;SDS011;4404;49.308;12.178;2023-07-13T06:56:34;0.70;;;0.70;;
8735;SDS011;4404;49.308;12.178;2023-07-13T06:58:36;1.10;;;1.10;;
8735;SDS011;4404;49.308;12.178;2023-07-13T07:00:43;0.80;;;0.80;;
8735;SDS011;4404;49.308;12.178;2023-07-13T07:02:45;0.80;;;0.80;;
8735;SDS011;4404;49.308;12.178;2023-07-13T07:04:47;0.70;;;0.70;;
8735;SDS011;4404;49.308;12.178;2023-07-13T07:06:50;0.60;;;0.60;;
8735;SDS011;4404;49.308;12.178;2023-07-13T07:08:52;0.60;;;0.60;;
8735;SDS011;4404;49.308;12.178;2023-07-13T07:10:54;0.60;;;0.60;;
8735;SDS011;4404;49.308;12.178;2023-07-13T07:12:56;0.60;;;0.60;;
8735;SDS011;4404;49.308;12.178;2023-07-13T07:14:59;0.60;;;0.60;;
8735;SDS011;4404;49.308;12.178;2023-07-13T07:17:03;0.60;;;0.60;;
8735;SDS011;4404;49.308;12.178;2023-07-13T07:19:05;0.60;;;0.60;;
8735;SDS011;4404;49.308;12.178;2023-07-13T07:21:08;0.70;;;0.70;;
8735;SDS011;4404;49.308;12.178;2023-07-13T07:23:10;0.70;;;0.70;;
8735;SDS011;4404;49.308;12.178;2023-07-13T07:25:12;0.70;;;0.70;;
8735;SDS011;4404;49.308;12.178;2023-07-13T07:27:18;0.70;;;0.70;;
8735;SDS011;4404;49.308;12.178;2023-07-13T07:29:23;0.60;;;0.60;;
8735;SDS011;4404;49.308;12.178;2023-07-13T07:31:28;0.70;;;0.70;;
8735;SDS011;4404;49.308;12.178;2023-07-13T07:33:34;0.60;;;0.60;;
8735;SDS011;4404;49.308;12.178;2023-07-13T07:35:36;0.60;;;0.60;;
8735;SDS011;4404;49.308;12.178;2023-07-13T07:37:38;0.70;;;0.70;;
8735;SDS011;4404;49.308;12.178;2023-07-13T07:39:41;0.70;;;0.70;;
8735;SDS011;4404;49.308;12.178;2023-07-13T07:41:45;0.60;;;0.60;;
8735;SDS011;4404;49.308;12.178;2023-07-13T07:43:46;0.60;;;0.60;;
8735;SDS011;4404;49.308;12.178;2023-07-13T07:45:48;0.60;;;0.60;;
8735;SDS011;4404;49.308;12.178;2023-07-13T07:47:49;0.60;;;0.60;;
8735;SDS011;4404;49.308;12.178;2023-07-13T07:49:53;0.68;;;0.68;;
8735;SDS011;4404;49.308;12.178;2023-07-13T07:51:55;0.60;;;0.60;;
8735;SDS011;4404;49.308;12.178;2023-07-13T07:53:58;0.60;;;0.60;;
8735;SDS011;4404;49.308;12.178;2023-07-13T07:56:02;0.63;;;0.63;;
8735;SDS011;4404;49.308;12.178;2023-07-13T07:58:05;0.70;;;0.70;;
8735;SDS011;4404;49.308;12.178;2023-07-13T08:00:11;0.70;;;0.70;;
8735;SDS011;4404;49.308;12.178;2023-07-13T08:02:15;0.70;;;0.70;;
8735;SDS011;4404;49.308;12.178;2023-07-13T08:04:20;0.60;;;0.60;;
8735;SDS011;4404;49.308;12.178;2023-07-13T08:06:26;0.60;;;0.60;;
8735;SDS011;4404;49.308;12.178;2023-07-13T08:08:29;0.70;;;0.70;;
8735;SDS011;4404;49.308;12.178;2023-07-13T08:10:31;0.60;;;0.60;;
8735;SDS011;4404;49.308;12.178;2023-07-13T08:12:36;0.60;;;0.60;;
8735;SDS011;4404;49.308;12.178;2023-07-13T08:14:39;0.70;;;0.70;;
8735;SDS011;4404;49.308;12.178;2023-07-13T08:16:43;0.60;;;0.60;;
8735;SDS011;4404;49.308;12.178;2023-07-13T08:18:46;0.60;;;0.60;;
8735;SDS011;4404;49.308;12.178;2023-07-13T08:20:48;0.60;;;0.60;;
8735;SDS011;4404;49.308;12.178;2023-07-13T08:22:52;0.70;;;0.70;;
8735;SDS011;4404;49.308;12.178;2023-07-13T08:24:59;0.70;;;0.70;;
8735;SDS011;4404;49.308;12.178;2023-07-13T08:27:06;0.70;;;0.70;;
8735;SDS011;4404;49.308;12.178;2023-07-13T08:29:09;0.60;;;0.60;;
8735;SDS011;4404;49.308;12.178;2023-07-13T08:31:11;0.70;;;0.70;;
8735;SDS011;4404;49.308;12.178;2023-07-13T08:33:13;0.60;;;0.60;;
8735;SDS011;4404;49.308;12.178;2023-07-13T08:35:16;0.70;;;0.70;;
8735;SDS011;4404;49.308;12.178;2023-07-13T08:37:18;0.60;;;0.60;;
8735;SDS011;4404;49.308;12.178;2023-07-13T08:39:22;0.60;;;0.60;;
8735;SDS011;4404;49.308;12.178;2023-07-13T08:41:24;0.70;;;0.70;;
8735;SDS011;4404;49.308;12.178;2023-07-13T08:43:28;0.60;;;0.60;;
8735;SDS011;4404;49.308;12.178;2023-07-13T08:45:37;0.70;;;0.70;;
8735;SDS011;4404;49.308;12.178;2023-07-13T08:47:47;0.60;;;0.60;;
8735;SDS011;4404;49.308;12.178;2023-07-13T08:49:54;0.60;;;0.60;;
8735;SDS011;4404;49.308;12.178;2023-07-13T08:51:59;0.60;;;0.60;;
8735;SDS011;4404;49.308;12.178;2023-07-13T08:54:08;0.70;;;0.70;;
8735;SDS011;4404;49.308;12.178;2023-07-13T08:56:24;0.65;;;0.65;;
8735;SDS011;4404;49.308;12.178;2023-07-13T08:58:32;0.65;;;0.65;;
8735;SDS011;4404;49.308;12.178;2023-07-13T09:00:35;0.60;;;0.60;;
8735;SDS011;4404;49.308;12.178;2023-07-13T09:02:46;0.68;;;0.68;;
8735;SDS011;4404;49.308;12.178;2023-07-13T09:04:56;0.60;;;0.60;;
8735;SDS011;4404;49.308;12.178;2023-07-13T09:07:05;0.57;;;0.57;;
8735;SDS011;4404;49.308;12.178;2023-07-13T09:09:20;0.80;;;0.80;;
8735;SDS011;4404;49.308;12.178;2023-07-13T09:11:42;0.70;;;0.70;;
8735;SDS011;4404;49.308;12.178;2023-07-13T09:13:53;0.60;;;0.60;;
8735;SDS011;4404;49.308;12.178;2023-07-13T09:16:03;0.60;;;0.60;;
8735;SDS011;4404;49.308;12.178;2023-07-13T09:18:08;0.68;;;0.68;;
8735;SDS011;4404;49.308;12.178;2023-07-13T09:20:17;0.60;;;0.60;;
8735;SDS011;4404;49.308;12.178;2023-07-13T09:22:27;0.77;;;0.77;;
8735;SDS011;4404;49.308;12.178;2023-07-13T09:24:36;0.52;;;0.52;;
8735;SDS011;4404;49.308;12.178;2023-07-13T09:26:45;0.60;;;0.60;;
8735;SDS011;4404;49.308;12.178;2023-07-13T09:28:47;0.50;;;0.50;;
8735;SDS011;4404;49.308;12.178;2023-07-13T09:30:55;0.60;;;0.60;;
8735;SDS011;4404;49.308;12.178;2023-07-13T09:33:04;0.70;;;0.70;;
8735;SDS011;4404;49.308;12.178;2023-07-13T09:35:09;0.60;;;0.60;;
8735;SDS011;4404;49.308;12.178;2023-07-13T09:37:12;0.63;;;0.63;;
8735;SDS011;4404;49.308;12.178;2023-07-13T09:39:15;0.60;;;0.60;;
8735;SDS011;4404;49.308;12.178;2023-07-13T09:41:27;0.60;;;0.60;;
8735;SDS011;4404;49.308;12.178;2023-07-13T09:43:39;0.60;;;0.60;;
8735;SDS011;4404;49.308;12.178;2023-07-13T09:46:03;0.60;;;0.60;;
8735;SDS011;4404;49.308;12.178;2023-07-13T09:48:06;0.60;;;0.60;;
8735;SDS011;4404;49.308;12.178;2023-07-13T09:50:14;0.70;;;0.70;;
8735;SDS011;4404;49.308;12.178;2023-07-13T09:52:17;0.70;;;0.70;;
8735;SDS011;4404;49.308;12.178;2023-07-13T09:54:21;0.70;;;0.70;;
8735;SDS011;4404;49.308;12.178;2023-07-13T09:56:27;0.55;;;0.55;;
8735;SDS011;4404;49.308;12.178;2023-07-13T09:58:30;0.50;;;0.50;;
8735;SDS011;4404;49.308;12.178;2023-07-13T10:00:37;0.50;;;0.50;;
8735;SDS011;4404;49.308;12.178;2023-07-13T10:02:41;0.70;;;0.70;;
8735;SDS011;4404;49.308;12.178;2023-07-13T10:04:46;0.60;;;0.60;;
8735;SDS011;4404;49.308;12.178;2023-07-13T10:07:04;0.60;;;0.60;;
8735;SDS011;4404;49.308;12.178;2023-07-13T10:09:07;0.63;;;0.63;;
8735;SDS011;4404;49.308;12.178;2023-07-13T10:11:11;0.60;;;0.60;;
8735;SDS011;4404;49.308;12.178;2023-07-13T10:13:30;0.80;;;0.80;;
8735;SDS011;4404;49.308;12.178;2023-07-13T10:15:38;0.50;;;0.50;;
8735;SDS011;4404;49.308;12.178;2023-07-13T10:17:41;0.60;;;0.60;;
8735;SDS011;4404;49.308;12.178;2023-07-13T10:19:44;0.52;;;0.52;;
8735;SDS011;4404;49.308;12.178;2023-07-13T10:21:50;0.60;;;0.60;;
8735;SDS011;4404;49.308;12.178;2023-07-13T10:23:58;0.60;;;0.60;;
8735;SDS011;4404;49.308;12.178;2023-07-13T10:26:21;0.70;;;0.70;;
8735;SDS011;4404;49.308;12.178;2023-07-13T10:28:31;0.65;;;0.65;;
8735;SDS011;4404;49.308;12.178;2023-07-13T10:32:58;0.60;;;0.60;;
8735;SDS011;4404;49.308;12.178;2023-07-13T10:35:03;0.60;;;0.60;;
8735;SDS011;4404;49.308;12.178;2023-07-13T10:37:07;0.68;;;0.68;;
8735;SDS011;4404;49.308;12.178;2023-07-13T10:39:21;0.60;;;0.60;;
8735;SDS011;4404;49.308;12.178;2023-07-13T10:41:31;0.60;;;0.60;;
8735;SDS011;4404;49.308;12.178;2023-07-13T10:43:41;0.50;;;0.50;;
8735;SDS011;4404;49.308;12.178;2023-07-13T10:45:46;0.60;;;0.60;;
8735;SDS011;4404;49.308;12.178;2023-07-13T10:47:59;0.60;;;0.60;;
8735;SDS011;4404;49.308;12.178;2023-07-13T10:50:03;0.60;;;0.60;;
8735;SDS011;4404;49.308;12.178;2023-07-13T10:54:47;0.50;;;0.50;;
8735;SDS011;4404;49.308;12.178;2023-07-13T10:56:53;0.55;;;0.55;;
8735;SDS011;4404;49.308;12.178;2023-07-13T10:59:17;0.63;;;0.63;;
8735;SDS011;4404;49.308;12.178;2023-07-13T11:01:38;0.60;;;0.60;;
8735;SDS011;4404;49.308;12.178;2023-07-13T11:03:48;0.55;;;0.55;;
8735;SDS011;4404;49.308;12.178;2023-07-13T11:06:05;0.70;;;0.70;;
8735;SDS011;4404;49.308;12.178;2023-07-13T11:08:13;0.70;;;0.70;;
8735;SDS011;4404;49.308;12.178;2023-07-13T11:12:50;0.55;;;0.55;;
8735;SDS011;4404;49.308;12.178;2023-07-13T11:15:04;0.60;;;0.60;;
8735;SDS011;4404;49.308;12.178;2023-07-13T11:17:33;0.80;;;0.80;;
8735;SDS011;4404;49.308;12.178;2023-07-13T11:19:41;0.60;;;0.60;;
8735;SDS011;4404;49.308;12.178;2023-07-13T11:24:14;1.00;;;1.00;;
8735;SDS011;4404;49.308;12.178;2023-07-13T11:26:39;0.60;;;0.60;;
8735;SDS011;4404;49.308;12.178;2023-07-13T11:28:43;0.60;;;0.60;;
8735;SDS011;4404;49.308;12.178;2023-07-13T11:30:59;0.75;;;0.75;;
8735;SDS011;4404;49.308;12.178;2023-07-13T11:33:17;0.70;;;0.70;;
8735;SDS011;4404;49.308;12.178;2023-07-13T11:35:24;0.75;;;0.75;;
8735;SDS011;4404;49.308;12.178;2023-07-13T11:37:27;0.65;;;0.65;;
8735;SDS011;4404;49.308;12.178;2023-07-13T11:39:32;0.60;;;0.60;;
8735;SDS011;4404;49.308;12.178;2023-07-13T11:41:37;0.60;;;0.60;;
8735;SDS011;4404;49.308;12.178;2023-07-13T11:43:50;0.52;;;0.52;;
8735;SDS011;4404;49.308;12.178;2023-07-13T11:45:55;0.60;;;0.60;;
8735;SDS011;4404;49.308;12.178;2023-07-13T11:47:57;0.60;;;0.60;;
8735;SDS011;4404;49.308;12.178;2023-07-13T11:50:01;0.50;;;0.50;;
8735;SDS011;4404;49.308;12.178;2023-07-13T11:52:09;0.50;;;0.50;;
8735;SDS011;4404;49.308;12.178;2023-07-13T11:54:17;0.68;;;0.68;;
8735;SDS011;4404;49.308;12.178;2023-07-13T11:56:28;0.60;;;0.60;;
8735;SDS011;4404;49.308;12.178;2023-07-13T11:58:32;0.70;;;0.70;;
8735;SDS011;4404;49.308;12.178;2023-07-13T12:00:34;0.50;;;0.50;;
8735;SDS011;4404;49.308;12.178;2023-07-13T12:02:39;0.50;;;0.50;;
8735;SDS011;4404;49.308;12.178;2023-07-13T12:04:46;0.50;;;0.50;;
8735;SDS011;4404;49.308;12.178;2023-07-13T12:06:53;0.57;;;0.57;;
8735;SDS011;4404;49.308;12.178;2023-07-13T12:09:00;0.60;;;0.60;;
8735;SDS011;4404;49.308;12.178;2023-07-13T12:11:14;0.73;;;0.73;;
8735;SDS011;4404;49.308;12.178;2023-07-13T12:13:18;0.70;;;0.70;;
8735;SDS011;4404;49.308;12.178;2023-07-13T12:15:21;0.85;;;0.85;;
8735;SDS011;4404;49.308;12.178;2023-07-13T12:17:25;0.90;;;0.90;;
8735;SDS011;4404;49.308;12.178;2023-07-13T12:19:28;0.65;;;0.65;;
8735;SDS011;4404;49.308;12.178;2023-07-13T12:21:31;0.60;;;0.60;;
8735;SDS011;4404;49.308;12.178;2023-07-13T12:23:34;0.60;;;0.60;;
8735;SDS011;4404;49.308;12.178;2023-07-13T12:25:38;0.80;;;0.80;;
8735;SDS011;4404;49.308;12.178;2023-07-13T12:27:41;0.70;;;0.70;;
8735;SDS011;4404;49.308;12.178;2023-07-13T12:29:48;0.60;;;0.60;;
8735;SDS011;4404;49.308;12.178;2023-07-13T12:31:53;0.60;;;0.60;;
8735;SDS011;4404;49.308;12.178;2023-07-13T12:33:56;0.50;;;0.50;;
8735;SDS011;4404;49.308;12.178;2023-07-13T12:36:00;0.70;;;0.70;;
8735;SDS011;4404;49.308;12.178;2023-07-13T12:38:07;0.77;;;0.77;;
8735;SDS011;4404;49.308;12.178;2023-07-13T12:40:13;0.77;;;0.77;;
8735;SDS011;4404;49.308;12.178;2023-07-13T12:42:20;0.70;;;0.70;;
8735;SDS011;4404;49.308;12.178;2023-07-13T12:44:28;0.70;;;0.70;;
8735;SDS011;4404;49.308;12.178;2023-07-13T12:46:31;0.57;;;0.57;;
8735;SDS011;4404;49.308;12.178;2023-07-13T12:48:37;0.65;;;0.65;;
8735;SDS011;4404;49.308;12.178;2023-07-13T12:50:47;0.50;;;0.50;;
8735;SDS011;4404;49.308;12.178;2023-07-13T12:52:52;0.57;;;0.57;;
8735;SDS011;4404;49.308;12.178;2023-07-13T12:54:57;0.60;;;0.60;;
8735;SDS011;4404;49.308;12.178;2023-07-13T12:57:05;0.60;;;0.60;;
8735;SDS011;4404;49.308;12.178;2023-07-13T12:59:14;0.73;;;0.73;;
8735;SDS011;4404;49.308;12.178;2023-07-13T13:01:26;0.70;;;0.70;;
8735;SDS011;4404;49.308;12.178;2023-07-13T13:03:31;0.60;;;0.60;;
8735;SDS011;4404;49.308;12.178;2023-07-13T13:05:36;0.70;;;0.70;;
8735;SDS011;4404;49.308;12.178;2023-07-13T13:07:38;0.75;;;0.75;;
8735;SDS011;4404;49.308;12.178;2023-07-13T13:09:41;0.70;;;0.70;;
8735;SDS011;4404;49.308;12.178;2023-07-13T13:11:44;0.60;;;0.60;;
8735;SDS011;4404;49.308;12.178;2023-07-13T13:13:47;0.70;;;0.70;;
8735;SDS011;4404;49.308;12.178;2023-07-13T13:15:51;0.70;;;0.70;;
8735;SDS011;4404;49.308;12.178;2023-07-13T13:17:53;0.52;;;0.52;;
8735;SDS011;4404;49.308;12.178;2023-07-13T13:19:58;0.60;;;0.60;;
8735;SDS011;4404;49.308;12.178;2023-07-13T13:22:00;0.63;;;0.63;;
8735;SDS011;4404;49.308;12.178;2023-07-13T13:24:08;0.70;;;0.70;;
8735;SDS011;4404;49.308;12.178;2023-07-13T13:33:08;0.70;;;0.70;;
8735;SDS011;4404;49.308;12.178;2023-07-13T13:35:12;0.50;;;0.50;;
8735;SDS011;4404;49.308;12.178;2023-07-13T13:37:18;0.60;;;0.60;;
8735;SDS011;4404;49.308;12.178;2023-07-13T13:39:27;0.60;;;0.60;;
8735;SDS011;4404;49.308;12.178;2023-07-13T13:47:42;0.60;;;0.60;;
8735;SDS011;4404;49.308;12.178;2023-07-13T13:58:40;0.50;;;0.50;;
8735;SDS011;4404;49.308;12.178;2023-07-13T14:00:48;0.50;;;0.50;;
8735;SDS011;4404;49.308;12.178;2023-07-13T14:02:50;0.50;;;0.50;;
8735;SDS011;4404;49.308;12.178;2023-07-13T14:04:55;0.50;;;0.50;;
8735;SDS011;4404;49.308;12.178;2023-07-13T14:07:02;0.40;;;0.40;;
8735;SDS011;4404;49.308;12.178;2023-07-13T14:09:04;0.50;;;0.50;;
8735;SDS011;4404;49.308;12.178;2023-07-13T14:11:13;0.50;;;0.50;;
8735;SDS011;4404;49.308;12.178;2023-07-13T14:13:19;0.50;;;0.50;;
8735;SDS011;4404;49.308;12.178;2023-07-13T14:15:28;0.50;;;0.50;;
8735;SDS011;4404;49.308;12.178;2023-07-13T14:17:31;0.50;;;0.50;;
8735;SDS011;4404;49.308;12.178;2023-07-13T14:19:34;0.52;;;0.52;;
8735;SDS011;4404;49.308;12.178;2023-07-13T14:21:36;0.45;;;0.45;;
8735;SDS011;4404;49.308;12.178;2023-07-13T14:23:40;0.40;;;0.40;;
8735;SDS011;4404;49.308;12.178;2023-07-13T14:25:42;0.40;;;0.40;;
8735;SDS011;4404;49.308;12.178;2023-07-13T14:27:46;0.40;;;0.40;;
8735;SDS011;4404;49.308;12.178;2023-07-13T14:29:55;0.38;;;0.38;;
8735;SDS011;4404;49.308;12.178;2023-07-13T14:31:58;0.40;;;0.40;;
8735;SDS011;4404;49.308;12.178;2023-07-13T14:34:00;0.40;;;0.40;;
8735;SDS011;4404;49.308;12.178;2023-07-13T14:36:02;0.50;;;0.50;;
8735;SDS011;4404;49.308;12.178;2023-07-13T14:38:18;0.60;;;0.60;;
8735;SDS011;4404;49.308;12.178;2023-07-13T14:40:24;0.70;;;0.70;;
8735;SDS011;4404;49.308;12.178;2023-07-13T14:42:32;0.63;;;0.63;;
8735;SDS011;4404;49.308;12.178;2023-07-13T14:44:34;0.50;;;0.50;;
8735;SDS011;4404;49.308;12.178;2023-07-13T14:46:37;0.55;;;0.55;;
8735;SDS011;4404;49.308;12.178;2023-07-13T14:48:39;0.50;;;0.50;;
8735;SDS011;4404;49.308;12.178;2023-07-13T14:50:42;0.40;;;0.40;;
8735;SDS011;4404;49.308;12.178;2023-07-13T14:52:45;0.50;;;0.50;;
8735;SDS011;4404;49.308;12.178;2023-07-13T14:54:48;0.50;;;0.50;;
8735;SDS011;4404;49.308;12.178;2023-07-13T14:56:53;0.40;;;0.40;;
8735;SDS011;4404;49.308;12.178;2023-07-13T14:58:55;0.40;;;0.40;;
8735;SDS011;4404;49.308;12.178;2023-07-13T15:00:57;0.40;;;0.40;;
8735;SDS011;4404;49.308;12.178;2023-07-13T15:03:00;0.40;;;0.40;;
8735;SDS011;4404;49.308;12.178;2023-07-13T15:05:05;0.38;;;0.38;;
8735;SDS011;4404;49.308;12.178;2023-07-13T15:07:14;0.47;;;0.47;;
8735;SDS011;4404;49.308;12.178;2023-07-13T15:09:19;0.50;;;0.50;;
8735;SDS011;4404;49.308;12.178;2023-07-13T15:11:21;0.47;;;0.47;;
8735;SDS011;4404;49.308;12.178;2023-07-13T15:13:25;0.40;;;0.40;;
8735;SDS011;4404;49.308;12.178;2023-07-13T15:15:28;0.40;;;0.40;;
8735;SDS011;4404;49.308;12.178;2023-07-13T15:17:34;0.40;;;0.40;;
8735;SDS011;4404;49.308;12.178;2023-07-13T15:19:39;0.45;;;0.45;;
8735;SDS011;4404;49.308;12.178;2023-07-13T15:21:41;0.40;;;0.40;;
8735;SDS011;4404;49.308;12.178;2023-07-13T15:23:43;0.40;;;0.40;;
8735;SDS011;4404;49.308;12.178;2023-07-13T15:25:46;0.47;;;0.47;;
8735;SDS011;4404;49.308;12.178;2023-07-13T15:27:48;0.40;;;0.40;;
8735;SDS011;4404;49.308;12.178;2023-07-13T15:29:52;0.40;;;0.40;;
8735;SDS011;4404;49.308;12.178;2023-07-13T15:31:54;0.50;;;0.50;;
8735;SDS011;4404;49.308;12.178;2023-07-13T15:33:57;0.45;;;0.45;;
8735;SDS011;4404;49.308;12.178;2023-07-13T15:36:01;0.47;;;0.47;;
8735;SDS011;4404;49.308;12.178;2023-07-13T15:38:10;0.50;;;0.50;;
8735;SDS011;4404;49.308;12.178;2023-07-13T15:40:16;0.55;;;0.55;;
8735;SDS011;4404;49.308;12.178;2023-07-13T15:42:22;0.40;;;0.40;;
8735;SDS011;4404;49.308;12.178;2023-07-13T15:44:26;0.60;;;0.60;;
8735;SDS011;4404;49.308;12.178;2023-07-13T15:46:32;0.50;;;0.50;;
8735;SDS011;4404;49.308;12.178;2023-07-13T15:48:34;0.40;;;0.40;;
8735;SDS011;4404;49.308;12.178;2023-07-13T15:50:41;0.50;;;0.50;;
8735;SDS011;4404;49.308;12.178;2023-07-13T15:52:47;0.50;;;0.50;;
8735;SDS011;4404;49.308;12.178;2023-07-13T15:54:52;0.50;;;0.50;;
8735;SDS011;4404;49.308;12.178;2023-07-13T15:56:54;0.50;;;0.50;;
8735;SDS011;4404;49.308;12.178;2023-07-13T15:59:02;0.50;;;0.50;;
8735;SDS011;4404;49.308;12.178;2023-07-13T16:01:04;0.50;;;0.50;;
8735;SDS011;4404;49.308;12.178;2023-07-13T16:03:08;0.40;;;0.40;;
8735;SDS011;4404;49.308;12.178;2023-07-13T16:05:10;0.50;;;0.50;;
8735;SDS011;4404;49.308;12.178;2023-07-13T16:07:13;0.40;;;0.40;;
8735;SDS011;4404;49.308;12.178;2023-07-13T16:09:19;0.60;;;0.60;;
8735;SDS011;4404;49.308;12.178;2023-07-13T16:11:24;0.50;;;0.50;;
8735;SDS011;4404;49.308;12.178;2023-07-13T16:13:29;0.50;;;0.50;;
8735;SDS011;4404;49.308;12.178;2023-07-13T16:15:31;0.50;;;0.50;;
8735;SDS011;4404;49.308;12.178;2023-07-13T16:17:33;0.50;;;0.50;;
8735;SDS011;4404;49.308;12.178;2023-07-13T16:19:36;0.50;;;0.50;;
8735;SDS011;4404;49.308;12.178;2023-07-13T16:21:40;0.50;;;0.50;;
8735;SDS011;4404;49.308;12.178;2023-07-13T16:23:45;0.40;;;0.40;;
8735;SDS011;4404;49.308;12.178;2023-07-13T16:25:48;0.50;;;0.50;;
8735;SDS011;4404;49.308;12.178;2023-07-13T16:27:52;0.30;;;0.30;;
8735;SDS011;4404;49.308;12.178;2023-07-13T16:30:00;0.40;;;0.40;;
8735;SDS011;4404;49.308;12.178;2023-07-13T16:32:14;0.40;;;0.40;;
8735;SDS011;4404;49.308;12.178;2023-07-13T16:34:16;0.55;;;0.55;;
8735;SDS011;4404;49.308;12.178;2023-07-13T16:36:20;0.50;;;0.50;;
8735;SDS011;4404;49.308;12.178;2023-07-13T16:38:22;0.43;;;0.43;;
8735;SDS011;4404;49.308;12.178;2023-07-13T16:40:25;0.60;;;0.60;;
8735;SDS011;4404;49.308;12.178;2023-07-13T16:42:29;0.60;;;0.60;;
8735;SDS011;4404;49.308;12.178;2023-07-13T16:44:31;0.50;;;0.50;;
8735;SDS011;4404;49.308;12.178;2023-07-13T16:46:33;0.50;;;0.50;;
8735;SDS011;4404;49.308;12.178;2023-07-13T16:48:36;0.50;;;0.50;;
8735;SDS011;4404;49.308;12.178;2023-07-13T16:50:39;0.50;;;0.50;;
8735;SDS011;4404;49.308;12.178;2023-07-13T16:52:46;0.50;;;0.50;;
8735;SDS011;4404;49.308;12.178;2023-07-13T16:54:49;0.50;;;0.50;;
8735;SDS011;4404;49.308;12.178;2023-07-13T16:56:52;0.50;;;0.50;;
8735;SDS011;4404;49.308;12.178;2023-07-13T16:58:54;0.50;;;0.50;;
8735;SDS011;4404;49.308;12.178;2023-07-13T18:15:15;0.40;;;0.40;;
8735;SDS011;4404;49.308;12.178;2023-07-13T18:49:09;0.50;;;0.50;;
